sensor_id;sensor_type;location;lat;lon;timestamp;P1;durP1;ratioP1;P2;durP2;ratioP2
75746;SDS011;64363;52.198;21.020;2022-11-15T00:01:36;6.13;;;5.50;;
75746;SDS011;64363;52.198;21.020;2022-11-15T00:04:03;6.78;;;5.05;;
75746;SDS011;64363;52.198;21.020;2022-11-15T00:06:29;6.75;;;5.35;;
75746;SDS011;64363;52.198;21.020;2022-11-15T00:08:57;7.38;;;5.75;;
75746;SDS011;64363;52.198;21.020;2022-11-15T00:11:23;6.80;;;5.70;;
75746;SDS011;64363;52.198;21.020;2022-11-15T00:13:49;7.18;;;5.47;;
75746;SDS011;64363;52.198;21.020;2022-11-15T00:16:15;7.25;;;6.07;;
75746;SDS011;64363;52.198;21.020;2022-11-15T00:18:40;6.88;;;5.93;;
75746;SDS011;64363;52.198;21.020;2022-11-15T00:21:07;8.02;;;5.90;;
75746;SDS011;64363;52.198;21.020;2022-11-15T00:23:36;7.57;;;5.80;;
75746;SDS011;64363;52.198;21.020;2022-11-15T00:26:07;7.57;;;6.57;;
75746;SDS011;64363;52.198;21.020;2022-11-15T00:28:37;7.20;;;6.50;;
75746;SDS011;64363;52.198;21.020;2022-11-15T00:31:04;8.23;;;7.00;;
75746;SDS011;64363;52.198;21.020;2022-11-15T00:33:33;7.10;;;6.18;;
75746;SDS011;64363;52.198;21.020;2022-11-15T00:36:06;7.50;;;6.35;;
75746;SDS011;64363;52.198;21.020;2022-11-15T00:38:38;6.88;;;6.18;;
75746;SDS011;64363;52.198;21.020;2022-11-15T00:41:05;7.60;;;6.28;;
75746;SDS011;64363;52.198;21.020;2022-11-15T00:43:32;8.25;;;7.15;;
75746;SDS011;64363;52.198;21.020;2022-11-15T00:45:59;7.95;;;6.70;;
75746;SDS011;64363;52.198;21.020;2022-11-15T00:48:25;7.13;;;6.38;;
75746;SDS011;64363;52.198;21.020;2022-11-15T00:50:50;7.70;;;6.93;;
75746;SDS011;64363;52.198;21.020;2022-11-15T00:53:16;10.07;;;8.00;;
75746;SDS011;64363;52.198;21.020;2022-11-15T00:55:42;8.50;;;6.70;;
75746;SDS011;64363;52.198;21.020;2022-11-15T00:58:08;8.77;;;6.95;;
75746;SDS011;64363;52.198;21.020;2022-11-15T01:00:34;7.38;;;6.57;;
75746;SDS011;64363;52.198;21.020;2022-11-15T01:03:00;7.60;;;6.53;;
75746;SDS011;64363;52.198;21.020;2022-11-15T01:05:26;8.45;;;7.38;;
75746;SDS011;64363;52.198;21.020;2022-11-15T01:07:53;10.23;;;7.25;;
75746;SDS011;64363;52.198;21.020;2022-11-15T01:10:20;9.25;;;7.55;;
75746;SDS011;64363;52.198;21.020;2022-11-15T01:12:46;8.40;;;7.03;;
75746;SDS011;64363;52.198;21.020;2022-11-15T01:15:11;9.93;;;7.88;;
75746;SDS011;64363;52.198;21.020;2022-11-15T01:17:37;9.60;;;7.97;;
75746;SDS011;64363;52.198;21.020;2022-11-15T01:20:03;9.70;;;8.00;;
75746;SDS011;64363;52.198;21.020;2022-11-15T01:22:29;9.90;;;8.05;;
75746;SDS011;64363;52.198;21.020;2022-11-15T01:24:55;11.70;;;8.20;;
75746;SDS011;64363;52.198;21.020;2022-11-15T01:27:21;9.77;;;8.60;;
75746;SDS011;64363;52.198;21.020;2022-11-15T01:29:47;11.05;;;8.25;;
75746;SDS011;64363;52.198;21.020;2022-11-15T01:32:12;8.88;;;7.25;;
75746;SDS011;64363;52.198;21.020;2022-11-15T01:34:38;9.68;;;8.32;;
75746;SDS011;64363;52.198;21.020;2022-11-15T01:37:04;8.88;;;7.97;;
75746;SDS011;64363;52.198;21.020;2022-11-15T01:39:29;9.73;;;8.38;;
75746;SDS011;64363;52.198;21.020;2022-11-15T01:41:55;9.80;;;8.07;;
75746;SDS011;64363;52.198;21.020;2022-11-15T01:47:14;9.48;;;7.18;;
75746;SDS011;64363;52.198;21.020;2022-11-15T01:49:50;11.20;;;7.65;;
75746;SDS011;64363;52.198;21.020;2022-11-15T01:52:21;10.18;;;7.97;;
75746;SDS011;64363;52.198;21.020;2022-11-15T01:54:50;9.57;;;8.20;;
75746;SDS011;64363;52.198;21.020;2022-11-15T01:57:22;10.10;;;7.70;;
75746;SDS011;64363;52.198;21.020;2022-11-15T01:59:47;10.60;;;8.13;;
75746;SDS011;64363;52.198;21.020;2022-11-15T02:02:13;10.13;;;8.10;;
75746;SDS011;64363;52.198;21.020;2022-11-15T02:04:41;10.48;;;8.07;;
75746;SDS011;64363;52.198;21.020;2022-11-15T02:09:36;11.23;;;7.70;;
75746;SDS011;64363;52.198;21.020;2022-11-15T02:12:02;10.30;;;7.65;;
75746;SDS011;64363;52.198;21.020;2022-11-15T02:14:28;9.55;;;7.38;;
75746;SDS011;64363;52.198;21.020;2022-11-15T02:16:59;8.68;;;7.63;;
75746;SDS011;64363;52.198;21.020;2022-11-15T02:34:43;11.05;;;8.18;;
75746;SDS011;64363;52.198;21.020;2022-11-15T02:37:16;10.57;;;9.10;;
75746;SDS011;64363;52.198;21.020;2022-11-15T02:39:56;10.35;;;8.95;;
75746;SDS011;64363;52.198;21.020;2022-11-15T02:42:33;9.18;;;7.82;;
75746;SDS011;64363;52.198;21.020;2022-11-15T02:45:30;11.85;;;9.02;;
75746;SDS011;64363;52.198;21.020;2022-11-15T02:48:00;12.93;;;10.10;;
75746;SDS011;64363;52.198;21.020;2022-11-15T02:50:28;11.70;;;8.48;;
75746;SDS011;64363;52.198;21.020;2022-11-15T02:52:56;11.32;;;9.10;;
75746;SDS011;64363;52.198;21.020;2022-11-15T02:58:58;11.02;;;9.60;;
75746;SDS011;64363;52.198;21.020;2022-11-15T03:06:40;12.70;;;8.88;;
75746;SDS011;64363;52.198;21.020;2022-11-15T03:09:19;12.00;;;9.00;;
75746;SDS011;64363;52.198;21.020;2022-11-15T03:11:49;13.20;;;9.57;;
75746;SDS011;64363;52.198;21.020;2022-11-15T03:14:25;12.25;;;10.18;;
75746;SDS011;64363;52.198;21.020;2022-11-15T03:19:45;13.55;;;9.30;;
75746;SDS011;64363;52.198;21.020;2022-11-15T03:22:15;14.05;;;10.55;;
75746;SDS011;64363;52.198;21.020;2022-11-15T03:24:43;13.40;;;9.82;;
75746;SDS011;64363;52.198;21.020;2022-11-15T03:27:12;11.80;;;9.77;;
75746;SDS011;64363;52.198;21.020;2022-11-15T03:29:44;10.43;;;8.48;;
75746;SDS011;64363;52.198;21.020;2022-11-15T03:32:17;12.32;;;10.07;;
75746;SDS011;64363;52.198;21.020;2022-11-15T03:34:50;12.75;;;9.55;;
75746;SDS011;64363;52.198;21.020;2022-11-15T03:37:22;13.35;;;11.05;;
75746;SDS011;64363;52.198;21.020;2022-11-15T03:39:54;13.32;;;10.48;;
75746;SDS011;64363;52.198;21.020;2022-11-15T03:42:30;13.80;;;10.95;;
75746;SDS011;64363;52.198;21.020;2022-11-15T03:47:52;11.98;;;9.13;;
75746;SDS011;64363;52.198;21.020;2022-11-15T03:50:24;14.13;;;9.98;;
75746;SDS011;64363;52.198;21.020;2022-11-15T03:52:50;12.82;;;10.27;;
75746;SDS011;64363;52.198;21.020;2022-11-15T03:55:19;14.02;;;10.30;;
75746;SDS011;64363;52.198;21.020;2022-11-15T03:57:47;13.60;;;10.48;;
75746;SDS011;64363;52.198;21.020;2022-11-15T04:02:41;14.30;;;10.35;;
75746;SDS011;64363;52.198;21.020;2022-11-15T04:05:07;14.40;;;10.10;;
75746;SDS011;64363;52.198;21.020;2022-11-15T04:07:33;13.20;;;9.68;;
75746;SDS011;64363;52.198;21.020;2022-11-15T04:09:59;13.90;;;10.70;;
75746;SDS011;64363;52.198;21.020;2022-11-15T04:12:27;13.80;;;9.93;;
75746;SDS011;64363;52.198;21.020;2022-11-15T04:14:58;16.15;;;10.27;;
75746;SDS011;64363;52.198;21.020;2022-11-15T04:20:02;12.98;;;9.27;;
75746;SDS011;64363;52.198;21.020;2022-11-15T04:22:54;12.85;;;9.35;;
75746;SDS011;64363;52.198;21.020;2022-11-15T04:25:42;14.43;;;9.40;;
75746;SDS011;64363;52.198;21.020;2022-11-15T04:28:09;13.77;;;10.15;;
75746;SDS011;64363;52.198;21.020;2022-11-15T04:30:35;13.18;;;9.80;;
75746;SDS011;64363;52.198;21.020;2022-11-15T04:33:01;12.82;;;8.88;;
75746;SDS011;64363;52.198;21.020;2022-11-15T04:35:27;12.85;;;9.45;;
75746;SDS011;64363;52.198;21.020;2022-11-15T04:37:53;13.45;;;9.75;;
75746;SDS011;64363;52.198;21.020;2022-11-15T04:40:19;12.38;;;9.45;;
75746;SDS011;64363;52.198;21.020;2022-11-15T04:42:45;12.80;;;9.70;;
75746;SDS011;64363;52.198;21.020;2022-11-15T04:45:10;14.50;;;9.75;;
75746;SDS011;64363;52.198;21.020;2022-11-15T04:47:36;14.05;;;9.77;;
75746;SDS011;64363;52.198;21.020;2022-11-15T04:50:02;14.35;;;9.43;;
75746;SDS011;64363;52.198;21.020;2022-11-15T04:52:28;12.48;;;9.32;;
75746;SDS011;64363;52.198;21.020;2022-11-15T04:54:54;12.80;;;9.38;;
75746;SDS011;64363;52.198;21.020;2022-11-15T04:57:20;13.10;;;9.93;;
75746;SDS011;64363;52.198;21.020;2022-11-15T04:59:45;14.45;;;10.40;;
75746;SDS011;64363;52.198;21.020;2022-11-15T05:02:11;13.10;;;9.85;;
75746;SDS011;64363;52.198;21.020;2022-11-15T05:04:37;13.63;;;9.30;;
75746;SDS011;64363;52.198;21.020;2022-11-15T05:07:03;12.70;;;9.27;;
75746;SDS011;64363;52.198;21.020;2022-11-15T05:09:32;12.23;;;9.20;;
75746;SDS011;64363;52.198;21.020;2022-11-15T05:11:57;14.38;;;10.10;;
75746;SDS011;64363;52.198;21.020;2022-11-15T05:14:23;13.32;;;9.93;;
75746;SDS011;64363;52.198;21.020;2022-11-15T05:16:48;14.52;;;9.98;;
75746;SDS011;64363;52.198;21.020;2022-11-15T05:19:14;14.85;;;10.13;;
75746;SDS011;64363;52.198;21.020;2022-11-15T05:21:40;15.00;;;10.18;;
75746;SDS011;64363;52.198;21.020;2022-11-15T05:24:05;16.48;;;10.10;;
75746;SDS011;64363;52.198;21.020;2022-11-15T05:26:32;16.38;;;10.15;;
75746;SDS011;64363;52.198;21.020;2022-11-15T05:28:57;14.15;;;9.77;;
75746;SDS011;64363;52.198;21.020;2022-11-15T05:31:25;15.88;;;10.18;;
75746;SDS011;64363;52.198;21.020;2022-11-15T05:33:51;14.60;;;9.98;;
75746;SDS011;64363;52.198;21.020;2022-11-15T05:36:22;15.35;;;10.38;;
75746;SDS011;64363;52.198;21.020;2022-11-15T05:38:56;15.20;;;10.63;;
75746;SDS011;64363;52.198;21.020;2022-11-15T05:41:24;16.05;;;10.90;;
75746;SDS011;64363;52.198;21.020;2022-11-15T05:43:55;14.52;;;10.30;;
75746;SDS011;64363;52.198;21.020;2022-11-15T05:46:21;16.55;;;11.50;;
75746;SDS011;64363;52.198;21.020;2022-11-15T05:48:47;16.38;;;11.20;;
75746;SDS011;64363;52.198;21.020;2022-11-15T05:51:15;15.05;;;10.57;;
75746;SDS011;64363;52.198;21.020;2022-11-15T05:53:43;16.00;;;10.75;;
75746;SDS011;64363;52.198;21.020;2022-11-15T05:56:10;14.82;;;10.18;;
75746;SDS011;64363;52.198;21.020;2022-11-15T05:58:36;15.93;;;10.63;;
75746;SDS011;64363;52.198;21.020;2022-11-15T06:01:03;13.52;;;8.88;;
75746;SDS011;64363;52.198;21.020;2022-11-15T06:03:29;14.60;;;10.73;;
75746;SDS011;64363;52.198;21.020;2022-11-15T06:05:56;15.98;;;9.82;;
75746;SDS011;64363;52.198;21.020;2022-11-15T06:08:22;16.67;;;11.52;;
75746;SDS011;64363;52.198;21.020;2022-11-15T06:10:48;15.82;;;10.57;;
75746;SDS011;64363;52.198;21.020;2022-11-15T06:13:13;16.60;;;10.40;;
75746;SDS011;64363;52.198;21.020;2022-11-15T06:15:39;19.38;;;11.52;;
75746;SDS011;64363;52.198;21.020;2022-11-15T06:18:04;15.02;;;9.75;;
75746;SDS011;64363;52.198;21.020;2022-11-15T06:20:30;15.77;;;10.48;;
75746;SDS011;64363;52.198;21.020;2022-11-15T06:22:59;15.60;;;10.45;;
75746;SDS011;64363;52.198;21.020;2022-11-15T06:25:27;17.65;;;11.00;;
75746;SDS011;64363;52.198;21.020;2022-11-15T06:27:54;16.95;;;10.45;;
75746;SDS011;64363;52.198;21.020;2022-11-15T06:30:21;14.40;;;10.02;;
75746;SDS011;64363;52.198;21.020;2022-11-15T06:32:47;14.70;;;9.93;;
75746;SDS011;64363;52.198;21.020;2022-11-15T06:35:13;13.73;;;8.93;;
75746;SDS011;64363;52.198;21.020;2022-11-15T06:37:39;17.05;;;10.02;;
75746;SDS011;64363;52.198;21.020;2022-11-15T06:40:06;15.15;;;9.98;;
75746;SDS011;64363;52.198;21.020;2022-11-15T06:42:33;17.73;;;11.18;;
75746;SDS011;64363;52.198;21.020;2022-11-15T06:45:00;16.38;;;9.80;;
75746;SDS011;64363;52.198;21.020;2022-11-15T06:47:25;16.02;;;9.57;;
75746;SDS011;64363;52.198;21.020;2022-11-15T06:49:51;16.10;;;11.25;;
75746;SDS011;64363;52.198;21.020;2022-11-15T06:52:17;17.48;;;9.55;;
75746;SDS011;64363;52.198;21.020;2022-11-15T06:54:44;11.85;;;8.20;;
75746;SDS011;64363;52.198;21.020;2022-11-15T06:57:10;12.85;;;8.70;;
75746;SDS011;64363;52.198;21.020;2022-11-15T06:59:36;13.82;;;9.98;;
75746;SDS011;64363;52.198;21.020;2022-11-15T07:02:02;12.85;;;8.60;;
75746;SDS011;64363;52.198;21.020;2022-11-15T07:04:28;16.85;;;10.02;;
75746;SDS011;64363;52.198;21.020;2022-11-15T07:06:54;15.30;;;9.30;;
75746;SDS011;64363;52.198;21.020;2022-11-15T07:09:20;13.70;;;9.05;;
75746;SDS011;64363;52.198;21.020;2022-11-15T07:11:45;17.38;;;10.35;;
75746;SDS011;64363;52.198;21.020;2022-11-15T07:14:11;14.30;;;9.20;;
75746;SDS011;64363;52.198;21.020;2022-11-15T07:16:37;14.80;;;9.50;;
75746;SDS011;64363;52.198;21.020;2022-11-15T07:19:03;15.43;;;9.77;;
75746;SDS011;64363;52.198;21.020;2022-11-15T07:21:29;13.68;;;8.65;;
75746;SDS011;64363;52.198;21.020;2022-11-15T07:23:54;12.43;;;9.05;;
75746;SDS011;64363;52.198;21.020;2022-11-15T07:26:20;12.18;;;8.35;;
75746;SDS011;64363;52.198;21.020;2022-11-15T07:28:46;11.50;;;7.90;;
75746;SDS011;64363;52.198;21.020;2022-11-15T07:31:11;10.82;;;7.75;;
75746;SDS011;64363;52.198;21.020;2022-11-15T07:33:37;12.40;;;7.53;;
75746;SDS011;64363;52.198;21.020;2022-11-15T07:36:04;11.38;;;7.85;;
75746;SDS011;64363;52.198;21.020;2022-11-15T07:38:31;10.23;;;7.85;;
75746;SDS011;64363;52.198;21.020;2022-11-15T07:40:58;10.93;;;7.18;;
75746;SDS011;64363;52.198;21.020;2022-11-15T07:43:26;12.40;;;8.32;;
75746;SDS011;64363;52.198;21.020;2022-11-15T07:45:53;11.13;;;7.55;;
75746;SDS011;64363;52.198;21.020;2022-11-15T07:48:19;9.15;;;7.20;;
75746;SDS011;64363;52.198;21.020;2022-11-15T07:50:45;10.93;;;7.75;;
75746;SDS011;64363;52.198;21.020;2022-11-15T07:53:11;12.65;;;8.25;;
75746;SDS011;64363;52.198;21.020;2022-11-15T07:55:37;13.48;;;8.25;;
75746;SDS011;64363;52.198;21.020;2022-11-15T07:58:05;11.35;;;7.88;;
75746;SDS011;64363;52.198;21.020;2022-11-15T08:00:33;11.90;;;7.82;;
75746;SDS011;64363;52.198;21.020;2022-11-15T08:03:06;10.40;;;8.23;;
75746;SDS011;64363;52.198;21.020;2022-11-15T08:05:34;9.48;;;7.18;;
75746;SDS011;64363;52.198;21.020;2022-11-15T08:08:01;10.18;;;7.50;;
75746;SDS011;64363;52.198;21.020;2022-11-15T08:10:27;9.70;;;7.32;;
75746;SDS011;64363;52.198;21.020;2022-11-15T08:13:03;10.35;;;7.68;;
75746;SDS011;64363;52.198;21.020;2022-11-15T08:15:31;10.70;;;7.43;;
75746;SDS011;64363;52.198;21.020;2022-11-15T08:17:58;10.80;;;7.38;;
75746;SDS011;64363;52.198;21.020;2022-11-15T08:20:26;12.52;;;8.20;;
75746;SDS011;64363;52.198;21.020;2022-11-15T08:22:57;9.95;;;7.28;;
75746;SDS011;64363;52.198;21.020;2022-11-15T08:25:24;12.50;;;8.32;;
75746;SDS011;64363;52.198;21.020;2022-11-15T08:27:54;12.02;;;8.68;;
75746;SDS011;64363;52.198;21.020;2022-11-15T08:30:21;10.55;;;7.05;;
75746;SDS011;64363;52.198;21.020;2022-11-15T08:32:48;11.43;;;7.22;;
75746;SDS011;64363;52.198;21.020;2022-11-15T08:35:15;12.52;;;7.35;;
75746;SDS011;64363;52.198;21.020;2022-11-15T08:37:42;10.88;;;7.00;;
75746;SDS011;64363;52.198;21.020;2022-11-15T08:40:07;11.52;;;7.80;;
75746;SDS011;64363;52.198;21.020;2022-11-15T08:42:35;9.32;;;6.85;;
75746;SDS011;64363;52.198;21.020;2022-11-15T08:45:00;11.15;;;7.90;;
75746;SDS011;64363;52.198;21.020;2022-11-15T08:47:26;9.20;;;7.07;;
75746;SDS011;64363;52.198;21.020;2022-11-15T08:49:52;10.65;;;7.47;;
75746;SDS011;64363;52.198;21.020;2022-11-15T08:52:18;10.45;;;7.63;;
75746;SDS011;64363;52.198;21.020;2022-11-15T08:54:44;10.20;;;8.07;;
75746;SDS011;64363;52.198;21.020;2022-11-15T08:57:09;10.23;;;7.68;;
75746;SDS011;64363;52.198;21.020;2022-11-15T08:59:35;12.45;;;7.78;;
75746;SDS011;64363;52.198;21.020;2022-11-15T09:02:02;11.07;;;7.32;;
75746;SDS011;64363;52.198;21.020;2022-11-15T09:04:28;12.68;;;8.05;;
75746;SDS011;64363;52.198;21.020;2022-11-15T09:06:54;10.07;;;7.13;;
75746;SDS011;64363;52.198;21.020;2022-11-15T09:09:20;12.45;;;8.15;;
75746;SDS011;64363;52.198;21.020;2022-11-15T09:11:46;11.15;;;7.82;;
75746;SDS011;64363;52.198;21.020;2022-11-15T09:14:11;11.32;;;8.57;;
75746;SDS011;64363;52.198;21.020;2022-11-15T09:16:38;12.00;;;7.78;;
75746;SDS011;64363;52.198;21.020;2022-11-15T09:19:03;9.93;;;6.63;;
75746;SDS011;64363;52.198;21.020;2022-11-15T09:21:30;10.18;;;7.40;;
75746;SDS011;64363;52.198;21.020;2022-11-15T09:23:56;11.38;;;8.20;;
75746;SDS011;64363;52.198;21.020;2022-11-15T09:26:22;11.55;;;8.05;;
75746;SDS011;64363;52.198;21.020;2022-11-15T09:28:48;10.52;;;7.72;;
75746;SDS011;64363;52.198;21.020;2022-11-15T09:31:14;10.35;;;7.40;;
75746;SDS011;64363;52.198;21.020;2022-11-15T09:33:39;9.90;;;7.47;;
75746;SDS011;64363;52.198;21.020;2022-11-15T09:36:08;11.23;;;7.93;;
75746;SDS011;64363;52.198;21.020;2022-11-15T09:38:35;11.77;;;8.10;;
75746;SDS011;64363;52.198;21.020;2022-11-15T09:48:58;11.88;;;7.85;;
75746;SDS011;64363;52.198;21.020;2022-11-15T09:51:39;10.93;;;8.23;;
75746;SDS011;64363;52.198;21.020;2022-11-15T09:54:46;10.82;;;7.65;;
75746;SDS011;64363;52.198;21.020;2022-11-15T10:00:29;14.73;;;8.30;;
75746;SDS011;64363;52.198;21.020;2022-11-15T10:03:23;10.77;;;7.97;;
75746;SDS011;64363;52.198;21.020;2022-11-15T10:05:54;11.88;;;8.90;;
75746;SDS011;64363;52.198;21.020;2022-11-15T10:08:37;11.20;;;8.30;;
75746;SDS011;64363;52.198;21.020;2022-11-15T10:11:16;12.32;;;8.38;;
75746;SDS011;64363;52.198;21.020;2022-11-15T10:13:45;11.30;;;8.90;;
75746;SDS011;64363;52.198;21.020;2022-11-15T10:22:30;11.15;;;8.57;;
75746;SDS011;64363;52.198;21.020;2022-11-15T10:24:43;12.48;;;8.93;;
75746;SDS011;64363;52.198;21.020;2022-11-15T10:27:17;12.25;;;8.57;;
75746;SDS011;64363;52.198;21.020;2022-11-15T10:29:44;11.45;;;8.48;;
75746;SDS011;64363;52.198;21.020;2022-11-15T10:32:16;10.43;;;8.52;;
75746;SDS011;64363;52.198;21.020;2022-11-15T10:34:44;12.32;;;8.52;;
75746;SDS011;64363;52.198;21.020;2022-11-15T10:37:11;10.93;;;7.95;;
75746;SDS011;64363;52.198;21.020;2022-11-15T10:39:37;10.40;;;8.00;;
75746;SDS011;64363;52.198;21.020;2022-11-15T10:42:25;11.00;;;8.63;;
75746;SDS011;64363;52.198;21.020;2022-11-15T10:44:52;10.20;;;7.38;;
75746;SDS011;64363;52.198;21.020;2022-11-15T10:47:31;9.90;;;7.13;;
75746;SDS011;64363;52.198;21.020;2022-11-15T10:49:59;10.30;;;7.47;;
75746;SDS011;64363;52.198;21.020;2022-11-15T10:52:27;9.98;;;7.53;;
75746;SDS011;64363;52.198;21.020;2022-11-15T10:54:56;12.25;;;8.02;;
75746;SDS011;64363;52.198;21.020;2022-11-15T10:57:27;11.25;;;8.38;;
75746;SDS011;64363;52.198;21.020;2022-11-15T10:59:57;13.55;;;8.13;;
75746;SDS011;64363;52.198;21.020;2022-11-15T11:02:27;10.65;;;7.85;;
75746;SDS011;64363;52.198;21.020;2022-11-15T11:05:00;10.95;;;8.77;;
75746;SDS011;64363;52.198;21.020;2022-11-15T11:07:32;10.63;;;7.75;;
75746;SDS011;64363;52.198;21.020;2022-11-15T11:10:01;10.52;;;8.57;;
75746;SDS011;64363;52.198;21.020;2022-11-15T11:12:31;10.43;;;7.68;;
75746;SDS011;64363;52.198;21.020;2022-11-15T11:14:59;10.57;;;8.27;;
75746;SDS011;64363;52.198;21.020;2022-11-15T11:17:32;10.90;;;8.57;;
75746;SDS011;64363;52.198;21.020;2022-11-15T11:20:14;10.43;;;7.90;;
75746;SDS011;64363;52.198;21.020;2022-11-15T11:23:03;11.48;;;9.00;;
75746;SDS011;64363;52.198;21.020;2022-11-15T11:28:41;13.10;;;8.68;;
75746;SDS011;64363;52.198;21.020;2022-11-15T11:31:39;11.70;;;8.88;;
75746;SDS011;64363;52.198;21.020;2022-11-15T11:42:17;11.23;;;8.30;;
75746;SDS011;64363;52.198;21.020;2022-11-15T11:47:30;12.30;;;9.63;;
75746;SDS011;64363;52.198;21.020;2022-11-15T11:50:17;11.27;;;9.38;;
75746;SDS011;64363;52.198;21.020;2022-11-15T11:52:58;10.98;;;8.95;;
75746;SDS011;64363;52.198;21.020;2022-11-15T11:55:37;12.40;;;9.70;;
75746;SDS011;64363;52.198;21.020;2022-11-15T12:07:08;11.13;;;8.60;;
75746;SDS011;64363;52.198;21.020;2022-11-15T12:12:32;12.82;;;9.60;;
75746;SDS011;64363;52.198;21.020;2022-11-15T12:15:11;11.77;;;8.30;;
75746;SDS011;64363;52.198;21.020;2022-11-15T12:17:40;11.77;;;9.15;;
75746;SDS011;64363;52.198;21.020;2022-11-15T12:20:23;11.55;;;8.55;;
75746;SDS011;64363;52.198;21.020;2022-11-15T12:30:21;11.98;;;9.23;;
75746;SDS011;64363;52.198;21.020;2022-11-15T12:36:43;12.40;;;9.82;;
75746;SDS011;64363;52.198;21.020;2022-11-15T12:39:10;12.57;;;9.30;;
75746;SDS011;64363;52.198;21.020;2022-11-15T12:41:38;13.55;;;9.30;;
75746;SDS011;64363;52.198;21.020;2022-11-15T12:44:10;11.50;;;10.02;;
75746;SDS011;64363;52.198;21.020;2022-11-15T12:49:41;12.60;;;8.85;;
75746;SDS011;64363;52.198;21.020;2022-11-15T12:52:04;13.95;;;9.82;;
75746;SDS011;64363;52.198;21.020;2022-11-15T13:02:44;13.23;;;9.48;;
75746;SDS011;64363;52.198;21.020;2022-11-15T13:17:45;11.73;;;9.63;;
75746;SDS011;64363;52.198;21.020;2022-11-15T13:22:45;11.82;;;10.07;;
75746;SDS011;64363;52.198;21.020;2022-11-15T13:30:52;12.77;;;10.30;;
75746;SDS011;64363;52.198;21.020;2022-11-15T13:35:50;13.25;;;9.80;;
75746;SDS011;64363;52.198;21.020;2022-11-15T13:40:51;15.20;;;11.10;;
75746;SDS011;64363;52.198;21.020;2022-11-15T13:43:30;13.95;;;10.00;;
75746;SDS011;64363;52.198;21.020;2022-11-15T13:46:19;13.20;;;10.85;;
75746;SDS011;64363;52.198;21.020;2022-11-15T13:48:46;13.38;;;10.32;;
75746;SDS011;64363;52.198;21.020;2022-11-15T13:56:39;15.05;;;11.00;;
75746;SDS011;64363;52.198;21.020;2022-11-15T14:03:10;14.13;;;9.93;;
75746;SDS011;64363;52.198;21.020;2022-11-15T14:05:39;15.63;;;10.85;;
75746;SDS011;64363;52.198;21.020;2022-11-15T22:16:52;5.53;;;4.18;;
75746;SDS011;64363;52.198;21.020;2022-11-15T22:19:18;5.07;;;3.90;;
75746;SDS011;64363;52.198;21.020;2022-11-15T22:21:43;5.20;;;3.58;;
75746;SDS011;64363;52.198;21.020;2022-11-15T22:24:09;5.57;;;4.00;;
75746;SDS011;64363;52.198;21.020;2022-11-15T22:26:35;5.22;;;3.95;;
75746;SDS011;64363;52.198;21.020;2022-11-15T22:29:01;4.97;;;4.00;;
75746;SDS011;64363;52.198;21.020;2022-11-15T22:31:26;5.45;;;4.13;;
75746;SDS011;64363;52.198;21.020;2022-11-15T22:33:52;4.85;;;3.85;;
75746;SDS011;64363;52.198;21.020;2022-11-15T22:36:17;5.15;;;3.95;;
75746;SDS011;64363;52.198;21.020;2022-11-15T22:38:43;5.18;;;3.97;;
75746;SDS011;64363;52.198;21.020;2022-11-15T22:41:09;5.68;;;4.68;;
75746;SDS011;64363;52.198;21.020;2022-11-15T22:43:36;5.85;;;4.38;;
75746;SDS011;64363;52.198;21.020;2022-11-15T22:46:02;5.38;;;3.90;;
75746;SDS011;64363;52.198;21.020;2022-11-15T22:48:30;6.28;;;3.80;;
75746;SDS011;64363;52.198;21.020;2022-11-15T22:50:57;5.80;;;4.03;;
75746;SDS011;64363;52.198;21.020;2022-11-15T22:53:23;5.75;;;4.35;;
75746;SDS011;64363;52.198;21.020;2022-11-15T22:55:50;5.72;;;4.10;;
75746;SDS011;64363;52.198;21.020;2022-11-15T22:58:20;5.80;;;4.40;;
75746;SDS011;64363;52.198;21.020;2022-11-15T23:00:48;5.78;;;4.50;;
75746;SDS011;64363;52.198;21.020;2022-11-15T23:03:16;5.93;;;4.63;;
75746;SDS011;64363;52.198;21.020;2022-11-15T23:05:42;6.35;;;4.43;;
75746;SDS011;64363;52.198;21.020;2022-11-15T23:08:08;5.38;;;4.22;;
75746;SDS011;64363;52.198;21.020;2022-11-15T23:10:34;6.25;;;4.40;;
75746;SDS011;64363;52.198;21.020;2022-11-15T23:13:19;5.03;;;3.75;;
75746;SDS011;64363;52.198;21.020;2022-11-15T23:15:49;6.75;;;5.00;;
75746;SDS011;64363;52.198;21.020;2022-11-15T23:18:35;5.55;;;3.88;;
75746;SDS011;64363;52.198;21.020;2022-11-15T23:23:39;6.57;;;4.32;;
75746;SDS011;64363;52.198;21.020;2022-11-15T23:26:05;5.75;;;3.95;;
75746;SDS011;64363;52.198;21.020;2022-11-15T23:28:32;7.25;;;4.80;;
75746;SDS011;64363;52.198;21.020;2022-11-15T23:31:02;5.97;;;3.83;;
75746;SDS011;64363;52.198;21.020;2022-11-15T23:33:51;5.68;;;4.25;;
75746;SDS011;64363;52.198;21.020;2022-11-15T23:36:23;4.72;;;3.70;;
75746;SDS011;64363;52.198;21.020;2022-11-15T23:38:50;5.95;;;4.22;;
75746;SDS011;64363;52.198;21.020;2022-11-15T23:41:16;6.00;;;3.75;;
75746;SDS011;64363;52.198;21.020;2022-11-15T23:43:42;5.45;;;3.85;;
75746;SDS011;64363;52.198;21.020;2022-11-15T23:46:07;5.47;;;4.13;;
75746;SDS011;64363;52.198;21.020;2022-11-15T23:48:33;6.70;;;4.80;;
75746;SDS011;64363;52.198;21.020;2022-11-15T23:50:59;6.25;;;4.38;;
75746;SDS011;64363;52.198;21.020;2022-11-15T23:53:24;6.28;;;5.13;;
75746;SDS011;64363;52.198;21.020;2022-11-15T23:55:59;5.82;;;4.20;;
75746;SDS011;64363;52.198;21.020;2022-11-15T23:58:26;5.03;;;3.92;;
